Time;durP1;ratioP1;P1;durP2;ratioP2;P2;SDS_P1;SDS_P2;PMS_P1;PMS_P2;Temp;Humidity;BMP_temperature;BMP_pressure;BME280_temperature;BME280_humidity;BME280_pressure;Samples;Min_cycle;Max_cycle;Signal;HPM_P1;HPM_P2
2023/02/03 00:00:32;;;;;;;32.20;26.30;;;;;;;2.64;100.00;99205.25;105758;1258;73071;-75
2023/02/03 00:03:01;;;;;;;30.60;26.10;;;;;;;2.69;100.00;99210.35;105723;1257;66547;-79
2023/02/03 00:05:32;;;;;;;33.20;26.00;;;;;;;2.72;100.00;99213.56;105704;1257;73101;-78
2023/02/03 00:08:01;;;;;;;31.00;24.70;;;;;;;2.66;100.00;99209.59;105726;1263;60167;-75
2023/02/03 00:10:33;;;;;;;31.20;25.50;;;;;;;2.61;100.00;99205.73;105728;1257;62031;-75
2023/02/03 00:13:01;;;;;;;32.50;25.80;;;;;;;2.62;100.00;99208.38;105727;1257;72642;-74
2023/02/03 00:15:30;;;;;;;28.50;24.80;;;;;;;2.67;100.00;99208.11;105674;1257;68973;-74
2023/02/03 00:17:58;;;;;;;29.90;23.90;;;;;;;2.74;100.00;99207.02;105704;1257;72392;-75
2023/02/03 00:20:27;;;;;;;25.50;21.00;;;;;;;2.81;100.00;99206.34;105872;1256;60311;-75
2023/02/03 00:23:07;;;;;;;30.10;24.10;;;;;;;2.85;100.00;99203.98;105608;1256;59889;-75
2023/02/03 00:25:36;;;;;;;28.80;21.90;;;;;;;2.87;100.00;99203.78;105696;1262;74886;-77
2023/02/03 00:28:06;;;;;;;25.40;20.90;;;;;;;2.86;100.00;99209.66;105593;1257;69127;-74
2023/02/03 00:30:35;;;;;;;30.40;23.50;;;;;;;2.81;100.00;99212.06;105639;1257;72507;-73
2023/02/03 00:33:04;;;;;;;30.40;23.60;;;;;;;2.76;100.00;99212.48;105809;1260;62522;-75
2023/02/03 00:35:34;;;;;;;30.70;23.20;;;;;;;2.73;100.00;99209.52;105777;1264;61686;-73
2023/02/03 00:38:04;;;;;;;28.10;22.10;;;;;;;2.74;100.00;99216.75;105730;1257;73662;-76
2023/02/03 00:40:35;;;;;;;23.70;20.80;;;;;;;2.77;100.00;99217.88;105571;1256;69638;-77
2023/02/03 00:43:03;;;;;;;23.30;20.20;;;;;;;2.79;100.00;99218.59;105747;1257;72045;-75
2023/02/03 00:45:32;;;;;;;23.80;19.70;;;;;;;2.79;100.00;99211.36;105408;1264;59746;-72
2023/02/03 00:48:02;;;;;;;24.80;21.10;;;;;;;2.78;100.00;99210.64;105699;1262;61091;-79
2023/02/03 00:50:31;;;;;;;29.00;23.30;;;;;;;2.77;100.00;99211.99;105504;1263;73990;-77
2023/02/03 00:52:59;;;;;;;30.20;25.00;;;;;;;2.77;100.00;99215.72;105753;1258;69733;-76
2023/02/03 00:55:28;;;;;;;30.40;25.40;;;;;;;2.77;100.00;99214.37;106228;1256;72348;-83
2023/02/03 00:57:57;;;;;;;31.80;24.40;;;;;;;2.71;100.00;99213.90;106201;1257;61161;-79
2023/02/03 01:00:27;;;;;;;28.80;25.20;;;;;;;2.74;100.00;99216.87;106185;1263;60084;-77
2023/02/03 01:02:57;;;;;;;29.50;23.60;;;;;;;2.78;100.00;99221.95;105810;1257;72499;-76
2023/02/03 01:05:26;;;;;;;29.20;25.40;;;;;;;2.82;100.00;99224.64;105526;1260;67860;-74
2023/02/03 01:07:54;;;;;;;28.70;22.10;;;;;;;2.84;100.00;99223.98;105780;1261;75041;-72
2023/02/03 01:10:24;;;;;;;32.10;26.90;;;;;;;2.82;100.00;99222.59;105662;1257;60735;-72
2023/02/03 01:12:55;;;;;;;35.80;26.20;;;;;;;2.79;100.00;99221.66;105776;1259;60964;-74
2023/02/03 01:15:24;;;;;;;33.30;25.50;;;;;;;2.83;100.00;99222.09;105854;1260;75623;-72
2023/02/03 01:17:56;;;;;;;33.70;26.50;;;;;;;2.85;100.00;99220.09;105827;1257;66153;-72
2023/02/03 01:20:25;;;;;;;29.50;22.20;;;;;;;2.85;100.00;99221.15;105822;1261;73140;-74
2023/02/03 01:22:54;;;;;;;30.90;24.50;;;;;;;2.83;100.00;99224.98;105679;1257;60835;-74
2023/02/03 01:25:23;;;;;;;28.00;22.20;;;;;;;2.80;100.00;99225.45;105755;1257;62099;-75
2023/02/03 01:27:52;;;;;;;31.00;24.40;;;;;;;2.82;100.00;99225.98;105736;1257;73351;-76
2023/02/03 01:30:20;;;;;;;32.70;25.40;;;;;;;2.80;100.00;99227.54;105573;1262;69192;-75
2023/02/03 01:32:48;;;;;;;35.40;27.80;;;;;;;2.80;100.00;99227.95;105733;1257;74364;-78
2023/02/03 01:35:16;;;;;;;34.60;27.90;;;;;;;2.80;100.00;99227.66;105667;1262;59816;-75
2023/02/03 01:37:45;;;;;;;37.40;25.70;;;;;;;2.79;100.00;99221.67;105645;1258;60543;-72
2023/02/03 01:40:13;;;;;;;31.80;26.20;;;;;;;2.72;100.00;99220.30;105779;1260;73495;-70
2023/02/03 01:42:41;;;;;;;36.10;26.60;;;;;;;2.71;100.00;99218.96;105775;1260;67441;-74
2023/02/03 01:45:10;;;;;;;33.90;27.60;;;;;;;2.73;100.00;99217.57;105932;1257;71524;-75
2023/02/03 01:47:52;;;;;;;35.30;24.10;;;;;;;2.74;100.00;99220.36;105894;1256;60521;-89
2023/02/03 01:50:30;;;;;;;41.50;30.60;;;;;;;2.72;100.00;99220.92;105663;1256;61999;-70
2023/02/03 01:53:03;;;;;;;56.30;36.50;;;;;;;2.69;100.00;99221.63;105831;1259;74866;-71
2023/02/03 01:55:34;;;;;;;;;;;;;;;2.63;100.00;99220.58;105768;1261;67462;-72
2023/02/03 01:58:18;;;;;;;38.70;30.80;;;;;;;2.59;100.00;99224.04;105927;1260;74447;-68
2023/02/03 02:00:49;;;;;;;33.20;25.60;;;;;;;2.58;100.00;99224.86;105249;1257;62738;-72
2023/02/03 02:03:23;;;;;;;38.10;27.70;;;;;;;2.63;100.00;99221.08;105776;1259;61876;-72
2023/02/03 02:05:55;;;;;;;31.10;24.30;;;;;;;2.66;100.00;99223.44;105782;1257;72527;-71
2023/02/03 02:08:23;;;;;;;31.00;25.20;;;;;;;2.69;100.00;99218.33;105661;1257;69095;-71
2023/02/03 02:10:51;;;;;;;30.70;24.90;;;;;;;2.73;100.00;99216.55;105717;1260;74698;-68
2023/02/03 02:50:51;;;;;;;28.40;19.90;;;;;;;2.13;100.00;99220.49;102117;1295;600395;-74
2023/02/03 02:53:21;;;;;;;28.70;22.20;;;;;;;2.08;100.00;99216.57;104490;1275;60997;-72
2023/02/03 02:55:51;;;;;;;33.00;23.10;;;;;;;2.06;100.00;99209.52;104581;1267;59982;-74
2023/02/03 02:58:20;;;;;;;34.40;27.00;;;;;;;2.09;100.00;99210.98;104572;1270;73137;-73
2023/02/03 03:00:48;;;;;;;33.90;24.50;;;;;;;2.13;100.00;99221.33;104532;1266;69506;-73
2023/02/03 03:03:19;;;;;;;31.70;25.30;;;;;;;2.18;100.00;99222.55;104124;1264;594169;-74
2023/02/03 03:05:54;;;;;;;28.50;23.70;;;;;;;2.31;100.00;99217.22;104683;1264;60888;-75
2023/02/03 03:08:48;;;;;;;28.60;23.60;;;;;;;2.44;100.00;99213.67;105059;1264;60091;-73
2023/02/03 03:11:17;;;;;;;25.30;19.80;;;;;;;2.54;100.00;99213.35;104765;1267;74355;-72
2023/02/03 03:13:48;;;;;;;28.60;21.60;;;;;;;2.59;100.00;99209.27;104857;1264;68061;-72
2023/02/03 03:16:18;;;;;;;29.80;22.10;;;;;;;2.63;100.00;99209.10;104752;1268;74127;-71
2023/02/03 03:18:48;;;;;;;30.80;24.90;;;;;;;2.66;100.00;99211.22;104993;1268;61080;-71
2023/02/03 03:21:21;;;;;;;27.20;22.00;;;;;;;2.67;100.00;99215.31;105121;1264;62880;-72
2023/02/03 03:23:50;;;;;;;26.00;20.50;;;;;;;2.66;100.00;99217.64;105319;1265;73826;-73
2023/02/03 03:26:31;;;;;;;33.50;23.80;;;;;;;2.61;100.00;99216.67;104676;1268;68647;-72
2023/02/03 03:29:08;;;;;;;31.50;24.30;;;;;;;2.55;100.00;99213.78;104651;1265;73629;-71
2023/02/03 03:31:36;;;;;;;27.50;22.60;;;;;;;2.55;100.00;99211.62;105099;1267;61147;-72
2023/02/03 03:34:04;;;;;;;35.00;23.80;;;;;;;2.57;100.00;99214.08;104585;1264;59741;-70
2023/02/03 03:36:41;;;;;;;34.70;25.50;;;;;;;2.62;100.00;99210.66;104657;1265;73928;-72
2023/02/03 03:39:19;;;;;;;29.90;24.50;;;;;;;2.68;100.00;99210.98;105149;1264;69467;-71
2023/02/03 03:42:22;;;;;;;33.60;25.80;;;;;;;2.66;100.00;99216.33;104899;1269;74890;-73
2023/02/03 03:45:01;;;;;;;29.70;23.70;;;;;;;2.63;100.00;99216.79;104876;1264;62472;-75
2023/02/03 03:47:40;;;;;;;37.20;27.90;;;;;;;2.60;100.00;99217.00;105273;1264;61732;-72
2023/02/03 03:50:11;;;;;;;32.90;24.40;;;;;;;2.51;100.00;99218.22;104977;1260;74056;-75
2023/02/03 03:52:39;;;;;;;33.40;25.80;;;;;;;2.47;100.00;99221.41;104927;1260;67630;-76
2023/02/03 03:55:09;;;;;;;34.90;26.40;;;;;;;2.50;100.00;99220.72;105477;1261;73545;-75
2023/02/03 03:57:44;;;;;;;32.30;24.60;;;;;;;2.54;100.00;99221.77;105079;1260;59850;-75
2023/02/03 04:00:14;;;;;;;28.10;23.80;;;;;;;2.59;100.00;99222.12;105134;1265;60557;-74
2023/02/03 04:02:43;;;;;;;37.20;27.90;;;;;;;2.57;100.00;99224.38;105117;1261;73418;-74
2023/02/03 04:05:12;;;;;;;34.50;23.60;;;;;;;2.50;100.00;99227.05;105430;1264;69071;-74
2023/02/03 04:07:41;;;;;;;35.00;25.80;;;;;;;2.48;100.00;99222.61;105150;1260;72857;-77
2023/02/03 04:10:27;;;;;;;33.30;24.50;;;;;;;2.47;100.00;99219.05;105385;1260;61325;-74
2023/02/03 04:12:56;;;;;;;36.90;27.10;;;;;;;2.51;100.00;99220.71;105078;1264;60086;-76
2023/02/03 04:15:24;;;;;;;29.80;23.00;;;;;;;2.57;100.00;99225.52;105514;1265;73967;-73
2023/02/03 04:17:53;;;;;;;30.00;24.70;;;;;;;2.60;100.00;99219.40;105493;1262;67284;-74
2023/02/03 04:20:24;;;;;;;33.00;25.00;;;;;;;2.60;100.00;99221.89;105392;1261;72877;-75
2023/02/03 04:22:53;;;;;;;31.30;25.90;;;;;;;2.57;100.00;99224.73;105398;1261;62526;-73
2023/02/03 04:25:21;;;;;;;34.60;26.40;;;;;;;2.50;100.00;99231.70;105355;1260;61153;-72
2023/02/03 04:27:49;;;;;;;36.60;29.00;;;;;;;2.46;100.00;99229.87;104948;1261;72479;-78
2023/02/03 04:30:17;;;;;;;41.20;28.50;;;;;;;2.45;100.00;99229.71;105268;1261;68569;-75
2023/02/03 04:32:46;;;;;;;34.80;25.40;;;;;;;2.49;100.00;99230.45;105417;1261;74502;-74
2023/02/03 04:35:14;;;;;;;38.80;26.40;;;;;;;2.52;100.00;99223.45;105469;1260;59645;-73
2023/02/03 04:37:43;;;;;;;26.60;21.60;;;;;;;2.54;100.00;99226.54;109114;1256;62000;-71
2023/02/03 04:40:11;;;;;;;36.00;26.10;;;;;;;2.51;100.00;99225.17;109064;1256;72873;-71
2023/02/03 04:42:40;;;;;;;33.30;26.00;;;;;;;2.47;100.00;99224.77;109032;1256;69004;-74
2023/02/03 04:45:09;;;;;;;31.00;25.10;;;;;;;2.51;100.00;99228.34;109083;1257;71844;-72
2023/02/03 04:47:39;;;;;;;31.50;24.60;;;;;;;2.54;100.00;99228.09;109083;1257;61330;-71
2023/02/03 04:50:07;;;;;;;32.70;25.80;;;;;;;2.55;100.00;99224.65;109071;1257;60766;-74
2023/02/03 04:52:36;;;;;;;28.40;22.40;;;;;;;2.60;100.00;99219.17;109097;1257;71860;-74
2023/02/03 04:55:04;;;;;;;34.00;25.60;;;;;;;2.65;100.00;99221.31;109100;1258;68677;-72
2023/02/03 04:57:34;;;;;;;30.90;26.40;;;;;;;2.72;100.00;99224.96;109032;1257;70858;-71
2023/02/03 05:00:02;;;;;;;35.30;25.20;;;;;;;2.78;100.00;99228.85;109053;1257;58350;-74
2023/02/03 05:02:32;;;;;;;32.90;24.40;;;;;;;2.81;100.00;99237.10;109121;1257;61238;-75
2023/02/03 05:05:00;;;;;;;34.90;26.30;;;;;;;2.79;100.00;99240.95;109035;1257;73591;-74
2023/02/03 05:07:28;;;;;;;37.70;27.30;;;;;;;2.73;100.00;99244.25;109114;1257;68734;-73
2023/02/03 05:09:56;;;;;;;37.20;25.30;;;;;;;2.71;100.00;99243.42;109098;1257;73595;-71
2023/02/03 05:12:25;;;;;;;33.40;26.60;;;;;;;2.73;100.00;99249.84;109061;1257;62092;-72
2023/02/03 05:14:54;;;;;;;30.30;24.10;;;;;;;2.76;100.00;99251.98;109041;1257;59132;-73
2023/02/03 05:17:22;;;;;;;29.90;24.00;;;;;;;2.73;100.00;99252.58;108973;1257;71556;-72
2023/02/03 05:19:50;;;;;;;30.20;24.60;;;;;;;2.74;100.00;99257.42;109066;1257;68251;-71
2023/02/03 05:22:18;;;;;;;33.90;25.40;;;;;;;2.73;100.00;99253.80;109119;1257;73004;-74
2023/02/03 05:24:46;;;;;;;40.50;26.40;;;;;;;2.73;100.00;99250.45;108943;1257;57787;-73
2023/02/03 05:27:14;;;;;;;31.00;23.70;;;;;;;2.67;100.00;99247.69;109098;1257;60270;-74
2023/02/03 05:29:42;;;;;;;31.20;24.00;;;;;;;2.60;100.00;99251.39;109084;1257;72245;-71
2023/02/03 05:32:10;;;;;;;27.50;21.30;;;;;;;2.60;100.00;99256.98;109088;1257;67326;-72
2023/02/03 05:34:39;;;;;;;25.70;19.90;;;;;;;2.62;100.00;99263.77;109021;1257;71601;-73
2023/02/03 05:37:09;;;;;;;30.20;22.90;;;;;;;2.68;100.00;99272.19;109069;1257;58046;-79
2023/02/03 05:39:37;;;;;;;27.70;20.50;;;;;;;2.71;100.00;99276.27;109083;1257;58281;-71
2023/02/03 05:42:05;;;;;;;27.40;20.10;;;;;;;2.69;100.00;99277.87;109078;1257;74231;-73
2023/02/03 05:44:34;;;;;;;29.20;20.10;;;;;;;2.67;100.00;99282.98;109082;1258;68114;-72
2023/02/03 05:47:02;;;;;;;30.80;21.10;;;;;;;2.64;100.00;99286.90;108974;1258;72724;-71
2023/02/03 05:49:34;;;;;;;28.70;22.20;;;;;;;2.62;100.00;99290.91;109026;1258;60063;-75
2023/02/03 05:52:05;;;;;;;26.10;22.50;;;;;;;2.61;100.00;99289.81;108950;1261;58604;-73
2023/02/03 05:54:33;;;;;;;30.00;22.60;;;;;;;2.63;100.00;99295.73;109084;1258;73298;-73
2023/02/03 05:57:01;;;;;;;27.10;19.40;;;;;;;2.63;100.00;99295.74;109095;1258;69326;-72
2023/02/03 05:59:29;;;;;;;22.00;18.70;;;;;;;2.64;100.00;99299.40;109081;1258;71722;-73
2023/02/03 06:01:57;;;;;;;27.70;21.00;;;;;;;2.61;100.00;99299.13;109036;1258;58252;-73
2023/02/03 06:04:26;;;;;;;22.50;19.40;;;;;;;2.59;100.00;99300.12;109036;1258;59090;-74
2023/02/03 06:06:54;;;;;;;37.00;22.20;;;;;;;2.57;100.00;99301.06;109042;1258;73919;-74
2023/02/03 06:09:22;;;;;;;32.80;19.10;;;;;;;2.55;100.00;99297.34;109056;1258;65826;-72
2023/02/03 06:11:51;;;;;;;23.50;19.30;;;;;;;2.54;100.00;99300.98;109054;1258;72917;-72
2023/02/03 06:14:19;;;;;;;28.40;19.90;;;;;;;2.54;100.00;99301.46;109031;1258;60399;-75
2023/02/03 06:16:48;;;;;;;26.30;20.10;;;;;;;2.52;100.00;99302.91;109039;1259;60013;-76
2023/02/03 06:19:17;;;;;;;23.90;17.80;;;;;;;2.52;100.00;99308.95;109065;1258;74212;-71
2023/02/03 06:21:45;;;;;;;23.20;17.80;;;;;;;2.53;100.00;99311.98;109111;1258;67484;-70
2023/02/03 06:24:14;;;;;;;24.20;17.30;;;;;;;2.52;100.00;99315.44;109007;1259;72856;-75
2023/02/03 06:26:42;;;;;;;23.30;17.70;;;;;;;2.47;100.00;99319.95;109035;1258;60284;-71
2023/02/03 06:29:10;;;;;;;23.50;16.50;;;;;;;2.42;100.00;99318.44;109065;1258;58857;-72
2023/02/03 06:31:38;;;;;;;24.60;16.00;;;;;;;2.40;100.00;99320.61;109039;1258;71007;-70
2023/02/03 06:34:07;;;;;;;22.10;15.00;;;;;;;2.40;100.00;99322.52;109076;1258;68838;-72
2023/02/03 06:36:35;;;;;;;22.50;16.00;;;;;;;2.39;100.00;99324.85;109075;1258;71856;-74
2023/02/03 06:39:03;;;;;;;24.50;16.10;;;;;;;2.37;100.00;99321.09;109020;1258;58643;-73
2023/02/03 06:41:32;;;;;;;18.50;14.10;;;;;;;2.36;100.00;99327.83;108989;1259;59439;-74
2023/02/03 06:43:59;;;;;;;22.60;15.20;;;;;;;2.37;100.00;99334.11;109038;1258;71357;-74
2023/02/03 06:46:29;;;;;;;24.70;18.50;;;;;;;2.34;100.00;99338.36;109021;1259;66020;-72
2023/02/03 06:48:57;;;;;;;20.10;16.60;;;;;;;2.33;100.00;99335.76;108972;1259;71857;-75
2023/02/03 06:51:26;;;;;;;20.50;13.80;;;;;;;2.33;100.00;99341.76;108937;1259;60210;-72
2023/02/03 06:53:57;;;;;;;20.30;14.60;;;;;;;2.33;100.00;99338.70;109044;1259;58151;-76
2023/02/03 06:56:25;;;;;;;17.70;12.60;;;;;;;2.35;100.00;99338.81;109043;1259;74258;-74
2023/02/03 06:58:53;;;;;;;17.80;12.80;;;;;;;2.35;100.00;99346.89;109091;1259;69054;-73
2023/02/03 07:01:22;;;;;;;18.10;14.40;;;;;;;2.34;100.00;99340.75;108967;1259;72011;-74
2023/02/03 07:03:50;;;;;;;12.70;10.70;;;;;;;2.33;100.00;99343.02;108915;1259;60416;-73
2023/02/03 07:06:18;;;;;;;17.90;13.90;;;;;;;2.30;100.00;99344.98;108951;1259;60374;-72
2023/02/03 07:08:46;;;;;;;18.00;12.30;;;;;;;2.29;100.00;99344.45;108904;1258;72367;-71
2023/02/03 07:11:15;;;;;;;12.70;10.80;;;;;;;2.31;100.00;99345.19;108981;1258;67824;-71
2023/02/03 07:13:44;;;;;;;12.60;10.70;;;;;;;2.31;100.00;99346.80;108892;1259;72222;-76
2023/02/03 07:16:12;;;;;;;19.90;12.90;;;;;;;2.33;100.00;99347.06;108979;1259;58195;-71
2023/02/03 07:18:40;;;;;;;15.00;12.60;;;;;;;2.36;100.00;99351.06;109024;1259;58287;-71
2023/02/03 07:21:16;;;;;;;18.20;12.20;;;;;;;2.37;100.00;99352.73;109035;1258;72913;-74
2023/02/03 07:23:48;;;;;;;15.40;11.40;;;;;;;2.34;100.00;99356.94;108948;1259;68060;-75
2023/02/03 07:26:16;;;;;;;16.50;11.90;;;;;;;2.31;100.00;99352.77;108969;1259;73562;-76
2023/02/03 07:28:47;;;;;;;14.10;9.10;;;;;;;2.29;100.00;99354.50;108805;1259;59950;-71
2023/02/03 07:31:15;;;;;;;11.50;8.50;;;;;;;2.27;100.00;99354.90;109049;1259;59504;-73
2023/02/03 07:33:44;;;;;;;10.00;8.60;;;;;;;2.28;100.00;99362.09;109019;1259;73909;-71
2023/02/03 07:36:12;;;;;;;10.70;8.40;;;;;;;2.28;100.00;99365.48;109042;1259;69502;-71
2023/02/03 07:38:40;;;;;;;11.50;7.40;;;;;;;2.28;100.00;99370.61;109005;1259;73721;-72
2023/02/03 07:41:09;;;;;;;10.50;8.10;;;;;;;2.26;100.00;99368.70;109026;1258;59087;-73
2023/02/03 07:43:38;;;;;;;8.50;7.70;;;;;;;2.22;100.00;99373.27;108897;1260;61115;-74
2023/02/03 07:46:07;;;;;;;8.10;6.40;;;;;;;2.16;100.00;99372.61;108969;1260;73866;-72
2023/02/03 07:48:37;;;;;;;7.50;5.80;;;;;;;2.12;100.00;99383.23;108871;1260;68954;-75
2023/02/03 07:51:05;;;;;;;8.40;6.40;;;;;;;2.07;100.00;99382.93;108934;1260;71468;-75
2023/02/03 07:53:34;;;;;;;6.10;5.60;;;;;;;2.03;100.00;99385.41;108922;1260;59294;-74
2023/02/03 07:56:03;;;;;;;5.10;4.60;;;;;;;1.97;100.00;99388.99;108947;1260;60297;-75
2023/02/03 07:58:31;;;;;;;4.00;3.60;;;;;;;1.89;100.00;99387.23;108903;1260;72875;-73
2023/02/03 08:00:59;;;;;;;5.20;4.40;;;;;;;1.79;100.00;99375.48;108897;1260;68182;-79
2023/02/03 08:03:29;;;;;;;4.50;4.00;;;;;;;1.74;100.00;99380.35;108886;1261;73386;-78
2023/02/03 08:06:00;;;;;;;8.20;7.10;;;;;;;1.70;100.00;99386.73;108927;1260;62816;-78
2023/02/03 08:08:28;;;;;;;4.30;3.50;;;;;;;1.66;100.00;99392.31;108955;1259;59160;-78
2023/02/03 08:10:56;;;;;;;2.80;2.60;;;;;;;1.65;100.00;99390.40;108938;1262;72461;-77
2023/02/03 08:13:25;;;;;;;3.90;3.50;;;;;;;1.63;100.00;99383.42;108961;1260;68033;-77
2023/02/03 08:15:56;;;;;;;3.90;3.60;;;;;;;1.65;100.00;99381.22;108853;1259;73461;-77
2023/02/03 08:18:24;;;;;;;3.30;3.00;;;;;;;1.65;100.00;99384.44;108843;1264;60443;-81
2023/02/03 08:20:53;;;;;;;2.90;2.70;;;;;;;1.62;100.00;99386.92;108920;1260;61244;-78
2023/02/03 08:23:21;;;;;;;3.30;2.70;;;;;;;1.61;100.00;99384.27;108988;1260;71316;-81
2023/02/03 08:25:50;;;;;;;3.40;3.10;;;;;;;1.62;100.00;99391.38;108929;1259;65748;-78
2023/02/03 08:28:19;;;;;;;3.70;3.40;;;;;;;1.63;100.00;99385.42;108880;1260;71304;-80
2023/02/03 08:30:47;;;;;;;3.30;3.00;;;;;;;1.65;100.00;99390.19;109000;1260;58359;-79
2023/02/03 08:33:15;;;;;;;4.80;3.50;;;;;;;1.69;100.00;99399.09;108999;1260;61338;-80
2023/02/03 08:35:46;;;;;;;3.10;2.90;;;;;;;1.66;100.00;99404.23;108899;1259;72993;-76
2023/02/03 08:38:15;;;;;;;2.80;2.60;;;;;;;1.58;100.00;99407.95;108955;1259;66770;-80
2023/02/03 08:40:43;;;;;;;2.80;2.60;;;;;;;1.53;100.00;99403.52;108908;1260;73541;-77
2023/02/03 08:43:14;;;;;;;3.40;3.10;;;;;;;1.43;100.00;99401.97;108895;1260;61184;-76
2023/02/03 08:45:45;;;;;;;3.10;2.80;;;;;;;1.36;100.00;99404.61;108863;1260;58808;-77
2023/02/03 08:48:15;;;;;;;3.00;2.70;;;;;;;1.35;100.00;99403.85;108850;1260;74799;-75
2023/02/03 08:50:51;;;;;;;2.60;2.40;;;;;;;1.37;100.00;99407.34;108730;1260;66787;-75
2023/02/03 08:53:20;;;;;;;4.30;3.40;;;;;;;1.38;100.00;99407.27;108894;1260;72647;-78
2023/02/03 08:55:51;;;;;;;3.80;3.50;;;;;;;1.37;100.00;99410.85;108800;1260;60708;-78
2023/02/03 08:58:19;;;;;;;3.00;2.80;;;;;;;1.34;100.00;99409.45;108068;1260;1002198;-77
2023/02/03 09:00:48;;;;;;;3.80;3.50;;;;;;;1.32;100.00;99411.55;108846;1260;72020;-77
2023/02/03 09:03:17;;;;;;;3.60;3.10;;;;;;;1.29;100.00;99409.34;108833;1260;66758;-81
2023/02/03 09:05:45;;;;;;;3.60;3.30;;;;;;;1.30;100.00;99406.05;108852;1260;71895;-78
2023/02/03 09:08:16;;;;;;;7.70;7.00;;;;;;;1.33;100.00;99409.13;108863;1260;61137;-76
2023/02/03 09:10:46;;;;;;;4.30;4.00;;;;;;;1.34;100.00;99404.80;108902;1260;58361;-77
2023/02/03 09:13:16;;;;;;;4.60;4.20;;;;;;;1.33;100.00;99411.16;108827;1261;74175;-78
2023/02/03 09:15:48;;;;;;;4.40;4.00;;;;;;;1.32;100.00;99407.68;108807;1260;67954;-80
2023/02/03 09:18:17;;;;;;;4.00;3.70;;;;;;;1.30;100.00;99406.61;108958;1260;71666;-80
2023/02/03 09:20:46;;;;;;;4.40;4.00;;;;;;;1.29;100.00;99409.35;108915;1260;62366;-81
2023/02/03 09:23:14;;;;;;;3.70;3.30;;;;;;;1.28;100.00;99414.81;108921;1260;58671;-83
2023/02/03 09:25:48;;;;;;;4.20;3.50;;;;;;;1.28;100.00;99414.27;108795;1260;74802;-78
2023/02/03 09:28:17;;;;;;;4.20;3.70;;;;;;;1.30;100.00;99411.66;108875;1260;67992;-78
2023/02/03 09:30:46;;;;;;;4.90;4.50;;;;;;;1.33;100.00;99411.04;108846;1260;72660;-77
2023/02/03 09:33:17;;;;;;;4.50;4.10;;;;;;;1.32;100.00;99413.07;108890;1260;59251;-72
2023/02/03 09:35:52;;;;;;;4.40;3.80;;;;;;;1.29;100.00;99415.62;108974;1259;60066;-75
2023/02/03 09:38:21;;;;;;;4.50;4.20;;;;;;;1.28;100.00;99412.56;108805;1261;74846;-67
2023/02/03 09:41:00;;;;;;;5.60;4.70;;;;;;;1.28;100.00;99415.05;108968;1260;67088;-67
2023/02/03 12:07:03;;;;;;;7.60;6.40;;;;;;;1.26;100.00;99367.75;102442;1291;1016170;-82
2023/02/03 12:10:21;;;;;;;9.20;8.00;;;;;;;1.26;100.00;99362.30;104959;1278;61134;-74
2023/02/03 12:12:56;;;;;;;10.10;8.10;;;;;;;1.30;100.00;99362.40;104209;1277;61399;-71
2023/02/03 12:15:33;;;;;;;6.20;5.70;;;;;;;1.37;100.00;99357.40;104118;1271;1002957;-71
2023/02/03 12:24:34;;;;;;;6.60;5.90;;;;;;;1.58;100.00;99357.67;102938;1293;600334;-71
2023/02/03 12:27:21;;;;;;;5.40;4.30;;;;;;;1.63;100.00;99362.88;104886;1272;60451;-72
2023/02/03 12:30:02;;;;;;;5.80;5.20;;;;;;;1.72;100.00;99362.73;104871;1268;61035;-72
2023/02/03 12:32:54;;;;;;;5.90;5.30;;;;;;;1.81;100.00;99362.24;105064;1269;73120;-74
2023/02/03 12:35:30;;;;;;;7.90;7.00;;;;;;;1.89;100.00;99361.65;104936;1271;68096;-78
2023/02/03 12:38:15;;;;;;;7.70;6.40;;;;;;;1.94;100.00;99360.23;103954;1268;1002904;-81
2023/02/03 12:41:00;;;;;;;8.00;6.00;;;;;;;2.01;100.00;99360.73;105360;1269;60160;-73
2023/02/03 12:43:32;;;;;;;5.80;4.90;;;;;;;2.03;100.00;99370.11;105770;1267;61734;-78
2023/02/03 12:46:04;;;;;;;6.50;5.80;;;;;;;2.04;100.00;99371.30;105813;1271;72555;-77
2023/02/03 12:48:51;;;;;;;7.30;6.60;;;;;;;2.05;100.00;99375.88;106022;1269;67128;-78
2023/02/03 12:51:48;;;;;;;5.70;5.00;;;;;;;2.10;100.00;99375.02;105769;1272;73564;-78
2023/02/03 12:54:38;;;;;;;6.90;6.00;;;;;;;2.16;100.00;99374.73;105359;1267;60669;-74
2023/02/03 12:57:23;;;;;;;5.20;4.60;;;;;;;2.20;100.00;99376.70;105920;1256;61722;-71
2023/02/03 13:00:00;;;;;;;6.30;5.60;;;;;;;2.23;100.00;99378.70;105510;1256;73527;-71
2023/02/03 13:02:31;;;;;;;5.80;5.20;;;;;;;2.22;100.00;99382.33;106063;1259;67122;-78
2023/02/03 13:05:14;;;;;;;6.30;5.10;;;;;;;2.20;100.00;99379.89;106279;1256;71698;-78
2023/02/03 13:07:50;;;;;;;6.10;5.30;;;;;;;2.20;100.00;99376.95;106313;1257;60764;-77
2023/02/03 13:10:31;;;;;;;5.10;4.60;;;;;;;2.19;100.00;99372.59;106191;1256;60877;-78
2023/02/03 13:12:59;;;;;;;5.10;4.70;;;;;;;2.20;100.00;99371.11;105927;1264;74850;-71
2023/02/03 13:15:52;;;;;;;7.20;6.00;;;;;;;2.21;100.00;99371.27;105757;1259;67549;-72
2023/02/03 13:18:30;;;;;;;5.70;5.10;;;;;;;2.21;100.00;99371.47;106453;1256;73377;-80
2023/02/03 13:20:58;;;;;;;6.00;4.50;;;;;;;2.21;100.00;99371.20;106625;1256;59643;-80
2023/02/03 13:23:26;;;;;;;5.10;4.60;;;;;;;2.19;100.00;99367.98;106665;1257;60553;-74
2023/02/03 13:26:14;;;;;;;5.90;5.40;;;;;;;2.17;99.94;99370.77;105759;1257;1003028;-84
2023/02/03 13:29:03;;;;;;;5.70;5.10;;;;;;;2.15;99.89;99369.48;106556;1261;67344;-84
2023/02/03 13:31:43;;;;;;;4.50;4.10;;;;;;;2.14;99.94;99366.58;106836;1254;73286;-87
2023/02/03 13:34:53;;;;;;;5.80;4.20;;;;;;;2.17;100.00;99372.40;106569;1260;59937;-90
2023/02/03 13:37:29;;;;;;;5.20;4.70;;;;;;;2.21;99.91;99370.61;106344;1256;60671;-78
2023/02/03 13:40:16;;;;;;;10.30;4.70;;;;;;;2.24;99.89;99372.34;106210;1258;71882;-75
2023/02/03 13:42:47;;;;;;;7.20;6.10;;;;;;;2.25;99.78;99372.59;106313;1259;68445;-74
2023/02/03 13:45:32;;;;;;;4.90;4.40;;;;;;;2.25;99.66;99370.79;106261;1256;73354;-72
2023/02/03 13:48:42;;;;;;;7.30;6.10;;;;;;;2.22;99.52;99368.01;106250;1262;59772;-73
2023/02/03 13:51:21;;;;;;;7.80;7.00;;;;;;;2.20;99.42;99368.42;106258;1267;60879;-79
2023/02/03 13:53:50;;;;;;;6.70;5.60;;;;;;;2.17;99.46;99369.48;106019;1262;74758;-78
2023/02/03 13:56:22;;;;;;;7.40;6.70;;;;;;;2.17;99.66;99373.05;106178;1263;67627;-77
2023/02/03 13:59:13;;;;;;;7.20;5.20;;;;;;;2.16;99.37;99371.84;106153;1260;72560;-78
2023/02/03 14:01:43;;;;;;;8.00;5.60;;;;;;;2.13;99.21;99371.34;106419;1260;59826;-84
2023/02/03 14:04:22;;;;;;;8.60;7.10;;;;;;;2.10;99.17;99373.34;106507;1256;60938;-79
2023/02/03 14:07:24;;;;;;;6.40;5.00;;;;;;;2.02;98.89;99370.97;106525;1255;72613;-85
2023/02/03 14:10:12;;;;;;;5.90;5.30;;;;;;;1.93;98.56;99376.22;106475;1256;68230;-79
2023/02/03 14:12:50;;;;;;;4.70;4.20;;;;;;;1.86;98.49;99374.74;106339;1256;71082;-75
2023/02/03 14:15:21;;;;;;;5.30;4.60;;;;;;;1.84;98.33;99376.58;106322;1257;60087;-71
2023/02/03 14:17:49;;;;;;;4.80;3.80;;;;;;;1.82;97.89;99375.75;106257;1261;60946;-73
2023/02/03 14:20:23;;;;;;;4.40;3.90;;;;;;;1.80;97.65;99371.27;106213;1260;72811;-76
2023/02/03 14:22:53;;;;;;;3.80;3.40;;;;;;;1.80;97.61;99376.24;106322;1256;67024;-75
2023/02/03 14:25:23;;;;;;;5.10;4.00;;;;;;;1.77;97.39;99375.83;106412;1256;73665;-74
2023/02/03 14:27:58;;;;;;;4.30;3.90;;;;;;;1.70;97.11;99377.16;106208;1258;60755;-78
2023/02/03 14:30:27;;;;;;;4.30;3.90;;;;;;;1.63;97.25;99380.19;106332;1260;59652;-76
2023/02/03 14:32:59;;;;;;;4.40;4.10;;;;;;;1.58;97.22;99378.58;106341;1256;71960;-74
2023/02/03 14:35:30;;;;;;;5.20;4.00;;;;;;;1.57;97.23;99376.15;105937;1259;67460;-72
2023/02/03 14:38:03;;;;;;;4.40;3.40;;;;;;;1.55;97.60;99372.10;105972;1256;73443;-70
2023/02/03 14:40:38;;;;;;;6.40;4.10;;;;;;;1.55;97.48;99364.84;106209;1257;59846;-69
2023/02/03 14:43:44;;;;;;;6.90;5.00;;;;;;;1.56;97.62;99365.50;106198;1256;61838;-70
2023/02/03 14:46:21;;;;;;;7.00;4.90;;;;;;;1.54;97.66;99366.75;105954;1260;73676;-74